createdAt,value
2023-05-10T00:00:54.946Z,0.95
2023-05-10T00:01:57.309Z,0.70
2023-05-10T00:02:59.760Z,1.00
2023-05-10T00:04:02.259Z,0.80
2023-05-10T00:05:05.394Z,0.80
2023-05-10T00:06:08.546Z,0.95
2023-05-10T00:07:11.404Z,0.80
2023-05-10T00:08:13.754Z,0.88
2023-05-10T00:09:16.346Z,0.90
2023-05-10T00:10:18.857Z,0.68
2023-05-10T00:11:23.003Z,0.82
2023-05-10T00:12:26.484Z,0.70
2023-05-10T00:13:28.871Z,0.73
2023-05-10T00:14:31.611Z,0.77
2023-05-10T00:15:35.561Z,0.88
2023-05-10T00:16:38.007Z,0.93
2023-05-10T00:17:40.916Z,0.80
2023-05-10T00:18:43.365Z,0.90
2023-05-10T00:19:45.801Z,0.63
2023-05-10T00:20:49.670Z,0.82
2023-05-10T00:21:52.093Z,0.57
2023-05-10T00:22:54.549Z,0.80
2023-05-10T00:23:56.991Z,0.85
2023-05-10T00:24:59.832Z,0.60
2023-05-10T00:26:02.922Z,0.70
2023-05-10T00:27:05.330Z,0.88
2023-05-10T00:28:07.868Z,0.70
2023-05-10T00:29:10.485Z,1.08
2023-05-10T00:30:13.170Z,7.78
2023-05-10T00:31:15.673Z,30.05
2023-05-10T00:32:18.576Z,26.95
2023-05-10T00:33:21.280Z,20.05
2023-05-10T00:34:25.639Z,12.75
2023-05-10T00:35:28.123Z,9.85
2023-05-10T00:36:30.506Z,6.82
2023-05-10T00:37:33.482Z,5.28
2023-05-10T00:38:35.922Z,3.95
2023-05-10T00:39:39.051Z,4.00
2023-05-10T00:40:41.713Z,3.10
2023-05-10T00:41:51.283Z,3.13
2023-05-10T00:42:54.099Z,2.70
2023-05-10T00:43:57.230Z,2.50
2023-05-10T00:44:59.588Z,2.63
2023-05-10T00:46:02.519Z,2.22
2023-05-10T00:47:05.771Z,2.35
2023-05-10T00:48:08.418Z,1.83
2023-05-10T00:49:11.692Z,2.20
2023-05-10T00:50:16.556Z,2.00
2023-05-10T00:51:19.500Z,1.80
2023-05-10T00:52:24.512Z,1.90
2023-05-10T00:53:27.458Z,1.77
2023-05-10T00:54:31.274Z,1.90
2023-05-10T00:55:34.593Z,27.17
2023-05-10T00:56:37.775Z,32.45
2023-05-10T00:57:41.272Z,32.40
2023-05-10T00:58:43.703Z,28.60
2023-05-10T00:59:46.766Z,24.50
2023-05-10T01:00:50.425Z,19.48
2023-05-10T01:01:54.132Z,15.18
2023-05-10T01:02:59.033Z,12.63
2023-05-10T01:04:01.828Z,9.85
2023-05-10T01:05:04.879Z,8.20
2023-05-10T01:06:07.668Z,7.13
2023-05-10T01:07:10.507Z,7.30
2023-05-10T01:08:13.293Z,5.97
2023-05-10T01:09:15.906Z,5.32
2023-05-10T01:10:18.774Z,5.78
2023-05-10T01:11:22.125Z,5.10
2023-05-10T01:12:25.101Z,4.45
2023-05-10T01:13:37.059Z,4.38
2023-05-10T01:14:41.351Z,5.78
2023-05-10T01:15:43.776Z,4.35
2023-05-10T01:16:48.291Z,7.65
2023-05-10T01:17:52.324Z,25.45
2023-05-10T01:18:56.185Z,14.35
2023-05-10T01:19:58.631Z,16.13
2023-05-10T01:21:28.385Z,12.02
2023-05-10T01:23:03.852Z,8.98
2023-05-10T01:24:41.049Z,6.30
2023-05-10T01:26:13.082Z,4.82
2023-05-10T01:27:20.752Z,5.10
2023-05-10T01:28:52.190Z,4.93
2023-05-10T01:30:29.115Z,4.43
2023-05-10T01:31:51.019Z,3.92
2023-05-10T01:33:12.129Z,3.53
2023-05-10T01:34:20.949Z,3.60
2023-05-10T01:35:38.479Z,3.30
2023-05-10T01:37:08.301Z,3.33
2023-05-10T01:38:40.043Z,3.20
2023-05-10T01:39:48.537Z,4.25
2023-05-10T01:41:13.934Z,35.38
2023-05-10T01:42:22.389Z,28.17
2023-05-10T01:43:34.078Z,20.48
2023-05-10T01:44:55.626Z,13.85
2023-05-10T01:47:15.087Z,8.02
2023-05-10T01:48:20.762Z,6.40
2023-05-10T01:49:30.179Z,5.72
2023-05-10T01:50:33.537Z,5.30
2023-05-10T01:52:07.212Z,4.68
2023-05-10T01:53:12.581Z,4.30
2023-05-10T01:54:20.309Z,3.70
2023-05-10T01:55:26.019Z,4.03
2023-05-10T01:56:31.708Z,3.30
2023-05-10T01:57:37.185Z,3.20
2023-05-10T01:58:44.892Z,3.10
2023-05-10T01:59:51.609Z,2.80
2023-05-10T02:00:56.128Z,3.13
2023-05-10T02:02:01.029Z,2.72
2023-05-10T02:03:08.450Z,2.47
2023-05-10T02:04:14.811Z,2.65
2023-05-10T02:05:19.677Z,2.55
2023-05-10T02:06:25.034Z,2.38
2023-05-10T02:07:29.452Z,2.42
2023-05-10T02:08:33.522Z,11.98
2023-05-10T02:09:37.708Z,45.13
2023-05-10T02:10:40.901Z,27.92
2023-05-10T02:11:45.201Z,18.85
2023-05-10T02:12:50.281Z,14.63
2023-05-10T02:13:53.918Z,12.05
2023-05-10T02:15:05.229Z,9.27
2023-05-10T02:16:09.256Z,7.45
2023-05-10T02:17:13.053Z,6.45
2023-05-10T02:18:16.952Z,5.80
2023-05-10T02:19:20.889Z,5.22
2023-05-10T02:20:24.679Z,4.57
2023-05-10T02:21:28.878Z,3.88
2023-05-10T02:22:32.415Z,4.05
2023-05-10T02:23:36.630Z,3.88
2023-05-10T02:24:40.817Z,3.38
2023-05-10T02:25:44.965Z,3.50
2023-05-10T02:26:49.718Z,3.60
2023-05-10T02:27:55.050Z,3.60
2023-05-10T02:28:59.252Z,3.20
2023-05-10T02:30:02.377Z,2.95
2023-05-10T02:31:06.261Z,3.30
2023-05-10T02:32:11.031Z,3.15
2023-05-10T02:33:15.281Z,2.85
2023-05-10T02:34:18.405Z,2.97
2023-05-10T02:35:23.352Z,2.55
2023-05-10T02:36:28.565Z,2.50
2023-05-10T02:37:31.397Z,2.60
2023-05-10T02:38:35.705Z,2.90
2023-05-10T02:39:41.515Z,2.63
2023-05-10T02:40:47.015Z,2.78
2023-05-10T02:41:51.447Z,2.30
2023-05-10T02:42:57.405Z,2.25
2023-05-10T02:44:03.814Z,2.50
2023-05-10T02:45:13.331Z,2.35
2023-05-10T02:46:15.872Z,2.15
2023-05-10T02:47:19.675Z,2.60
2023-05-10T02:48:22.141Z,2.55
2023-05-10T02:49:24.627Z,5.30
2023-05-10T02:50:33.259Z,16.48
2023-05-10T02:51:40.145Z,14.77
2023-05-10T02:52:54.645Z,16.10
2023-05-10T02:54:01.628Z,12.65
2023-05-10T02:55:06.948Z,9.98
2023-05-10T02:56:24.536Z,9.93
2023-05-10T02:57:31.115Z,8.20
2023-05-10T02:58:33.697Z,6.65
2023-05-10T02:59:36.263Z,5.50
2023-05-10T03:00:38.703Z,5.43
2023-05-10T03:01:41.269Z,4.75
2023-05-10T03:02:43.633Z,3.70
2023-05-10T03:03:46.394Z,3.95
2023-05-10T03:04:48.790Z,3.60
2023-05-10T03:05:51.310Z,3.08
2023-05-10T03:06:53.836Z,3.30
2023-05-10T03:07:56.577Z,3.10
2023-05-10T03:09:00.240Z,3.25
2023-05-10T03:10:03.874Z,2.67
2023-05-10T03:11:29.016Z,2.80
2023-05-10T03:12:51.009Z,3.33
2023-05-10T03:14:24.643Z,3.15
2023-05-10T03:15:38.489Z,2.33
2023-05-10T03:16:48.558Z,2.90
2023-05-10T03:17:57.161Z,2.28
2023-05-10T03:19:13.783Z,2.63
2023-05-10T03:20:29.751Z,2.90
2023-05-10T03:21:33.501Z,2.60
2023-05-10T03:22:51.230Z,2.58
2023-05-10T03:24:08.587Z,2.70
2023-05-10T03:25:13.791Z,2.30
2023-05-10T03:26:24.957Z,2.42
2023-05-10T03:27:30.952Z,2.22
2023-05-10T03:28:35.086Z,2.00
2023-05-10T03:29:41.210Z,2.00
2023-05-10T03:30:46.576Z,2.03
2023-05-10T03:31:49.752Z,2.15
2023-05-10T03:32:52.703Z,36.15
2023-05-10T03:33:55.141Z,38.42
2023-05-10T03:35:01.241Z,38.65
2023-05-10T03:36:04.618Z,32.38
2023-05-10T03:37:07.102Z,56.60
2023-05-10T03:38:10.768Z,40.80
2023-05-10T03:39:13.395Z,24.60
2023-05-10T03:40:17.120Z,17.58
2023-05-10T03:41:21.523Z,12.50
2023-05-10T03:42:24.340Z,10.43
2023-05-10T03:43:26.643Z,8.05
2023-05-10T03:44:29.279Z,6.18
2023-05-10T03:45:31.943Z,5.82
2023-05-10T03:46:35.714Z,6.15
2023-05-10T03:47:38.921Z,5.22
2023-05-10T03:48:42.370Z,4.93
2023-05-10T03:49:44.702Z,4.78
2023-05-10T03:50:47.966Z,3.90
2023-05-10T03:51:50.364Z,4.00
2023-05-10T03:52:54.653Z,4.00
2023-05-10T03:53:58.247Z,4.07
2023-05-10T03:55:03.836Z,3.35
2023-05-10T03:56:15.345Z,3.08
2023-05-10T03:57:18.629Z,3.58
2023-05-10T03:58:22.966Z,2.92
2023-05-10T03:59:25.374Z,3.58
2023-05-10T04:00:28.200Z,2.90
2023-05-10T04:01:31.632Z,2.78
2023-05-10T04:02:34.251Z,2.80
2023-05-10T04:03:37.640Z,3.13
2023-05-10T04:04:41.678Z,2.63
2023-05-10T04:05:44.102Z,2.20
2023-05-10T04:06:47.938Z,2.05
2023-05-10T04:07:51.331Z,2.40
2023-05-10T04:08:53.673Z,2.05
2023-05-10T04:09:56.153Z,2.67
2023-05-10T04:11:09.307Z,2.15
2023-05-10T04:12:11.839Z,2.10
2023-05-10T04:13:14.401Z,2.70
2023-05-10T04:14:17.481Z,2.15
2023-05-10T04:15:20.435Z,1.90
2023-05-10T04:16:24.206Z,2.10
2023-05-10T04:17:26.681Z,1.90
2023-05-10T04:18:29.184Z,1.98
2023-05-10T04:19:32.466Z,1.67
2023-05-10T04:20:35.194Z,2.00
2023-05-10T04:21:37.707Z,2.00
2023-05-10T04:22:40.447Z,2.13
2023-05-10T04:23:42.837Z,1.70
2023-05-10T04:24:45.190Z,2.00
2023-05-10T04:25:47.620Z,1.80
2023-05-10T04:26:50.146Z,1.52
2023-05-10T04:27:53.220Z,1.38
2023-05-10T04:28:56.087Z,1.63
2023-05-10T04:29:58.661Z,1.52
2023-05-10T04:31:08.840Z,1.80
2023-05-10T04:32:12.169Z,1.67
2023-05-10T04:33:15.408Z,1.27
2023-05-10T04:34:17.913Z,1.40
2023-05-10T04:35:20.364Z,1.08
2023-05-10T04:36:22.876Z,1.60
2023-05-10T04:37:26.312Z,1.63
2023-05-10T04:38:29.539Z,1.52
2023-05-10T04:39:32.243Z,1.27
2023-05-10T04:40:35.304Z,1.40
2023-05-10T04:41:39.198Z,1.13
2023-05-10T04:42:42.460Z,1.23
2023-05-10T04:43:44.813Z,1.40
2023-05-10T04:44:47.162Z,34.85
2023-05-10T04:45:51.425Z,32.53
2023-05-10T04:46:53.972Z,24.52
2023-05-10T04:47:56.548Z,16.98
2023-05-10T04:48:58.985Z,14.32
2023-05-10T04:50:01.826Z,12.13
2023-05-10T04:51:05.015Z,12.52
2023-05-10T04:52:09.377Z,11.70
2023-05-10T04:53:11.824Z,11.80
2023-05-10T04:54:15.377Z,10.77
2023-05-10T04:55:18.530Z,9.30
2023-05-10T04:56:21.016Z,9.02
2023-05-10T04:57:23.377Z,8.88
2023-05-10T04:58:26.173Z,9.55
2023-05-10T04:59:28.616Z,8.73
2023-05-10T05:00:31.209Z,7.70
2023-05-10T05:01:34.221Z,7.18
2023-05-10T05:02:36.777Z,7.50
2023-05-10T05:03:40.526Z,8.27
2023-05-10T05:04:43.179Z,7.60
2023-05-10T05:05:45.885Z,7.13
2023-05-10T05:06:51.700Z,7.45
2023-05-10T05:07:56.172Z,7.60
2023-05-10T05:08:58.855Z,6.97
2023-05-10T05:10:02.279Z,7.70
2023-05-10T05:11:04.890Z,7.68
2023-05-10T05:12:07.467Z,7.10
2023-05-10T05:13:10.161Z,7.43
2023-05-10T05:14:13.083Z,6.82
2023-05-10T05:15:17.492Z,7.15
2023-05-10T05:16:20.430Z,6.72
2023-05-10T05:17:22.932Z,7.43
2023-05-10T05:18:25.385Z,6.85
2023-05-10T05:19:28.382Z,6.45
2023-05-10T05:20:34.020Z,6.45
2023-05-10T05:21:36.628Z,7.32
2023-05-10T05:22:39.193Z,7.22
2023-05-10T05:23:41.682Z,6.80
2023-05-10T05:24:46.052Z,6.35
2023-05-10T05:25:48.507Z,6.75
2023-05-10T05:26:51.032Z,7.32
2023-05-10T05:27:54.125Z,6.90
2023-05-10T05:28:56.843Z,7.32
2023-05-10T05:29:59.633Z,6.90
2023-05-10T05:31:02.286Z,6.57
2023-05-10T05:32:05.003Z,6.20
2023-05-10T05:33:07.445Z,6.72
2023-05-10T05:34:10.230Z,6.72
2023-05-10T05:35:12.849Z,6.13
2023-05-10T05:36:15.287Z,9.10
2023-05-10T05:37:20.000Z,11.52
2023-05-10T05:38:22.472Z,11.93
2023-05-10T05:39:24.971Z,10.75
2023-05-10T05:40:27.456Z,9.48
2023-05-10T05:41:30.164Z,8.50
2023-05-10T05:42:32.614Z,8.63
2023-05-10T05:43:37.424Z,8.63
2023-05-10T05:44:41.752Z,8.52
2023-05-10T05:45:44.444Z,7.63
2023-05-10T05:46:47.049Z,7.28
2023-05-10T05:47:49.663Z,7.65
2023-05-10T05:48:52.109Z,6.43
2023-05-10T05:49:54.480Z,7.30
2023-05-10T05:50:57.661Z,6.68
2023-05-10T05:52:01.676Z,6.72
2023-05-10T05:53:04.115Z,6.25
2023-05-10T05:54:07.766Z,6.70
2023-05-10T05:55:10.290Z,6.80
2023-05-10T05:56:12.723Z,7.03
2023-05-10T05:57:15.182Z,6.10
2023-05-10T05:58:18.009Z,6.45
2023-05-10T05:59:20.423Z,6.75
2023-05-10T06:00:22.953Z,6.88
2023-05-10T06:01:25.468Z,6.75
2023-05-10T06:02:28.136Z,6.43
2023-05-10T06:03:30.998Z,6.43
2023-05-10T06:04:34.720Z,6.95
2023-05-10T06:05:38.000Z,6.40
2023-05-10T06:06:40.449Z,6.45
2023-05-10T06:07:43.232Z,5.72
2023-05-10T06:08:45.631Z,6.57
2023-05-10T06:09:47.983Z,5.75
2023-05-10T06:10:50.588Z,6.10
2023-05-10T06:11:53.133Z,6.45
2023-05-10T06:12:55.557Z,10.25
2023-05-10T06:13:58.438Z,43.05
2023-05-10T06:15:01.026Z,46.05
2023-05-10T06:16:04.200Z,35.95
2023-05-10T06:17:07.740Z,24.05
2023-05-10T06:18:10.259Z,23.52
2023-05-10T06:19:12.774Z,25.08
2023-05-10T06:20:15.132Z,22.55
2023-05-10T06:21:17.492Z,17.98
2023-05-10T06:22:19.894Z,29.13
2023-05-10T06:23:23.508Z,35.88
2023-05-10T06:24:25.964Z,25.48
2023-05-10T06:25:28.574Z,26.70
2023-05-10T06:26:31.099Z,20.88
2023-05-10T06:27:33.680Z,15.00
2023-05-10T06:28:36.136Z,14.10
2023-05-10T06:29:38.509Z,12.48
2023-05-10T06:30:41.086Z,13.10
2023-05-10T06:31:43.529Z,12.80
2023-05-10T06:32:47.268Z,12.05
2023-05-10T06:33:49.697Z,12.82
2023-05-10T06:34:52.021Z,12.13
2023-05-10T06:35:54.934Z,12.70
2023-05-10T06:36:57.320Z,12.05
2023-05-10T06:37:59.917Z,12.30
2023-05-10T06:39:02.314Z,10.60
2023-05-10T06:40:05.439Z,10.90
2023-05-10T06:41:07.966Z,11.25
2023-05-10T06:42:10.665Z,9.55
2023-05-10T06:43:15.289Z,10.38
2023-05-10T06:44:17.947Z,10.45
2023-05-10T06:45:20.622Z,10.18
2023-05-10T06:46:23.186Z,10.50
2023-05-10T06:47:25.729Z,8.45
2023-05-10T06:48:28.102Z,10.38
2023-05-10T06:49:30.599Z,9.50
2023-05-10T06:50:33.291Z,12.48
2023-05-10T06:51:35.849Z,11.90
2023-05-10T06:52:39.740Z,16.50
2023-05-10T06:53:42.890Z,16.55
2023-05-10T06:54:46.307Z,32.97
2023-05-10T06:55:50.502Z,22.17
2023-05-10T06:56:53.047Z,19.83
2023-05-10T06:57:55.625Z,16.92
2023-05-10T06:58:58.065Z,14.75
2023-05-10T07:00:00.990Z,13.68
2023-05-10T07:01:04.766Z,11.55
2023-05-10T07:02:08.139Z,11.43
2023-05-10T07:03:11.744Z,10.82
2023-05-10T07:04:14.924Z,11.07
2023-05-10T07:05:17.767Z,11.00
2023-05-10T07:06:32.302Z,11.85
2023-05-10T07:07:36.029Z,12.18
2023-05-10T07:08:38.434Z,11.18
2023-05-10T07:09:41.338Z,11.43
2023-05-10T07:10:43.774Z,11.05
2023-05-10T07:11:46.160Z,12.88
2023-05-10T07:12:48.680Z,10.00
2023-05-10T07:13:52.249Z,10.85
2023-05-10T07:14:54.887Z,10.60
2023-05-10T07:15:57.320Z,17.90
2023-05-10T07:16:59.689Z,18.25
2023-05-10T07:18:02.238Z,21.50
2023-05-10T07:19:06.477Z,18.77
2023-05-10T07:20:11.298Z,19.70
2023-05-10T07:21:13.781Z,20.90
2023-05-10T07:22:17.585Z,21.92
2023-05-10T07:23:20.375Z,20.27
2023-05-10T07:24:24.365Z,19.77
2023-05-10T07:25:27.118Z,17.27
2023-05-10T07:26:29.959Z,17.95
2023-05-10T07:27:32.457Z,16.92
2023-05-10T07:28:34.928Z,16.17
2023-05-10T07:29:37.396Z,14.45
2023-05-10T07:30:39.904Z,14.45
2023-05-10T07:31:43.756Z,12.70
2023-05-10T07:32:46.809Z,12.38
2023-05-10T07:33:49.191Z,12.73
2023-05-10T07:34:51.560Z,12.45
2023-05-10T07:35:54.278Z,12.27
2023-05-10T07:36:59.603Z,11.88
2023-05-10T07:38:03.567Z,11.60
2023-05-10T07:39:06.196Z,10.45
2023-05-10T07:40:09.294Z,10.85
2023-05-10T07:41:13.123Z,11.20
2023-05-10T07:42:15.807Z,12.02
2023-05-10T07:43:18.158Z,11.25
2023-05-10T07:44:21.297Z,11.32
2023-05-10T07:45:24.510Z,11.02
2023-05-10T07:46:27.270Z,11.25
2023-05-10T07:47:29.691Z,11.80
2023-05-10T07:48:32.308Z,10.77
2023-05-10T07:49:34.908Z,12.55
2023-05-10T07:50:37.295Z,10.48
2023-05-10T07:51:40.008Z,10.77
2023-05-10T07:52:42.873Z,11.20
2023-05-10T07:53:45.760Z,11.60
2023-05-10T07:54:48.132Z,10.38
2023-05-10T07:55:58.944Z,10.07
2023-05-10T07:57:01.531Z,10.70
2023-05-10T07:58:04.011Z,10.45
2023-05-10T07:59:08.125Z,10.70
2023-05-10T08:00:14.505Z,11.30
2023-05-10T08:01:17.386Z,10.75
2023-05-10T08:02:19.759Z,10.52
2023-05-10T08:03:22.288Z,10.40
2023-05-10T08:04:25.190Z,11.18
2023-05-10T08:05:27.689Z,10.00
2023-05-10T08:06:30.930Z,12.27
2023-05-10T08:07:33.613Z,10.27
2023-05-10T08:08:35.995Z,10.60
2023-05-10T08:09:38.711Z,10.10
2023-05-10T08:10:41.742Z,10.73
2023-05-10T08:11:44.646Z,11.00
2023-05-10T08:12:46.987Z,9.07
2023-05-10T08:13:50.729Z,24.92
2023-05-10T08:14:53.180Z,49.53
2023-05-10T08:15:55.745Z,29.92
2023-05-10T08:16:58.156Z,19.38
2023-05-10T08:18:00.678Z,37.47
2023-05-10T08:19:03.501Z,38.97
2023-05-10T08:20:08.388Z,25.08
2023-05-10T08:21:12.256Z,18.17
2023-05-10T08:22:14.612Z,13.80
2023-05-10T08:23:17.688Z,10.10
2023-05-10T08:24:20.218Z,9.35
2023-05-10T08:25:22.749Z,7.40
2023-05-10T08:26:26.016Z,6.90
2023-05-10T08:27:36.469Z,6.22
2023-05-10T08:28:39.308Z,5.78
2023-05-10T08:29:49.458Z,5.78
2023-05-10T08:30:53.309Z,4.07
2023-05-10T08:31:55.797Z,5.00
2023-05-10T08:32:58.695Z,4.88
2023-05-10T08:34:01.298Z,5.05
2023-05-10T08:35:03.787Z,4.32
2023-05-10T08:36:06.308Z,3.85
2023-05-10T08:37:08.794Z,3.83
2023-05-10T08:38:11.272Z,3.45
2023-05-10T08:39:26.823Z,2.95
2023-05-10T08:40:32.794Z,3.72
2023-05-10T08:41:37.842Z,3.40
2023-05-10T08:42:46.623Z,3.50
2023-05-10T08:43:49.324Z,2.95
2023-05-10T08:44:53.595Z,2.80
2023-05-10T08:45:59.816Z,6.10
2023-05-10T08:47:07.583Z,22.25
2023-05-10T08:48:11.409Z,30.30
2023-05-10T08:49:19.694Z,25.73
2023-05-10T08:50:22.992Z,18.17
2023-05-10T08:51:28.017Z,26.48
2023-05-10T08:52:36.477Z,13.40
2023-05-10T08:53:39.520Z,11.68
2023-05-10T08:54:42.561Z,8.68
2023-05-10T08:55:45.000Z,7.80
2023-05-10T08:56:49.694Z,6.70
2023-05-10T08:57:52.462Z,5.57
2023-05-10T08:58:56.106Z,5.53
2023-05-10T09:00:00.296Z,4.07
2023-05-10T09:01:04.737Z,4.03
2023-05-10T09:02:11.111Z,3.97
2023-05-10T09:03:14.020Z,3.72
2023-05-10T09:04:16.420Z,3.50
2023-05-10T09:05:19.364Z,3.05
2023-05-10T09:06:22.469Z,3.55
2023-05-10T09:07:25.180Z,2.78
2023-05-10T09:08:28.301Z,2.53
2023-05-10T09:09:31.455Z,2.95
2023-05-10T09:10:33.963Z,2.53
2023-05-10T09:11:36.660Z,2.70
2023-05-10T09:12:39.789Z,2.35
2023-05-10T09:13:44.363Z,2.78
2023-05-10T09:14:47.821Z,2.00
2023-05-10T09:15:50.722Z,1.98
2023-05-10T09:16:56.462Z,2.22
2023-05-10T09:18:00.451Z,2.10
2023-05-10T09:19:04.339Z,10.07
2023-05-10T09:20:08.428Z,13.18
2023-05-10T09:21:11.802Z,9.05
2023-05-10T09:22:14.627Z,9.15
2023-05-10T09:23:17.044Z,14.60
2023-05-10T09:24:19.718Z,16.63
2023-05-10T09:25:22.727Z,9.48
2023-05-10T09:26:25.750Z,6.55
2023-05-10T09:27:28.261Z,5.45
2023-05-10T09:28:50.778Z,4.10
2023-05-10T09:29:56.135Z,2.90
2023-05-10T09:30:58.898Z,2.85
2023-05-10T09:32:01.769Z,2.60
2023-05-10T09:33:06.492Z,2.40
2023-05-10T09:34:09.317Z,2.40
2023-05-10T09:35:17.196Z,1.90
2023-05-10T09:36:19.968Z,2.00
2023-05-10T09:37:30.453Z,2.10
2023-05-10T09:38:49.493Z,2.35
2023-05-10T09:39:56.020Z,1.75
2023-05-10T09:40:58.747Z,2.00
2023-05-10T09:42:04.806Z,1.75
2023-05-10T09:43:08.454Z,1.92
2023-05-10T09:44:10.971Z,2.03
2023-05-10T09:45:13.458Z,1.60
2023-05-10T09:46:18.988Z,1.40
2023-05-10T09:47:21.977Z,1.35
2023-05-10T09:48:25.808Z,1.23
2023-05-10T09:49:28.569Z,1.27
2023-05-10T09:50:31.714Z,1.17
2023-05-10T09:51:36.909Z,1.40
2023-05-10T09:52:54.553Z,1.60
2023-05-10T09:54:12.279Z,1.10
2023-05-10T09:55:17.001Z,1.05
2023-05-10T09:56:35.848Z,1.00
2023-05-10T09:57:38.893Z,1.10
2023-05-10T09:58:41.590Z,0.90
2023-05-10T09:59:44.275Z,1.20
2023-05-10T10:00:48.894Z,0.90
2023-05-10T10:01:52.681Z,1.13
2023-05-10T10:02:57.352Z,0.98
2023-05-10T10:04:03.165Z,0.90
2023-05-10T10:05:08.424Z,0.70
2023-05-10T10:06:26.481Z,1.00
2023-05-10T10:07:32.316Z,1.08
2023-05-10T10:08:36.178Z,1.08
2023-05-10T10:09:39.381Z,0.93
2023-05-10T10:10:45.629Z,1.02
2023-05-10T10:11:48.219Z,0.73
2023-05-10T10:12:51.882Z,1.75
2023-05-10T10:13:54.596Z,25.48
2023-05-10T10:14:57.937Z,27.67
2023-05-10T10:16:01.748Z,13.27
2023-05-10T10:17:08.366Z,17.75
2023-05-10T10:18:16.398Z,12.43
2023-05-10T10:19:24.127Z,9.15
2023-05-10T10:20:29.833Z,5.47
2023-05-10T10:21:33.528Z,4.97
2023-05-10T10:22:39.355Z,3.20
2023-05-10T10:23:41.790Z,3.22
2023-05-10T10:24:44.444Z,2.47
2023-05-10T10:25:49.791Z,1.90
2023-05-10T10:26:55.606Z,1.98
2023-05-10T10:28:18.455Z,2.22
2023-05-10T10:29:30.767Z,1.90
2023-05-10T10:30:40.207Z,1.95
2023-05-10T10:31:51.836Z,1.65
2023-05-10T10:33:28.479Z,1.30
2023-05-10T10:34:32.328Z,1.50
2023-05-10T10:35:35.795Z,1.75
2023-05-10T10:36:44.430Z,1.75
2023-05-10T10:37:48.816Z,1.77
2023-05-10T10:39:02.277Z,1.42
2023-05-10T10:40:33.670Z,1.67
2023-05-10T10:41:41.875Z,14.05
2023-05-10T10:42:47.079Z,6.05
2023-05-10T10:43:49.796Z,10.68
2023-05-10T10:45:12.862Z,25.02
2023-05-10T10:46:18.541Z,12.88
2023-05-10T10:47:25.882Z,7.30
2023-05-10T10:48:28.399Z,6.15
2023-05-10T10:49:38.773Z,4.63
2023-05-10T10:50:47.827Z,3.35
2023-05-10T10:52:24.945Z,2.63
2023-05-10T10:53:29.414Z,2.35
2023-05-10T10:54:33.760Z,2.13
2023-05-10T10:55:45.597Z,1.70
2023-05-10T10:57:11.888Z,2.00
2023-05-10T10:58:31.701Z,13.88
2023-05-10T10:59:34.017Z,12.75
2023-05-10T11:00:38.341Z,18.23
2023-05-10T11:01:45.293Z,8.75
2023-05-10T11:02:52.587Z,6.55
2023-05-10T11:04:01.121Z,4.97
2023-05-10T11:05:32.411Z,4.13
2023-05-10T11:06:37.068Z,2.75
2023-05-10T11:07:59.197Z,2.40
2023-05-10T11:09:09.965Z,2.50
2023-05-10T11:10:12.478Z,2.03
2023-05-10T11:11:16.075Z,2.08
2023-05-10T11:12:18.476Z,1.70
2023-05-10T11:13:40.043Z,1.88
2023-05-10T11:14:42.537Z,2.15
2023-05-10T11:15:51.128Z,1.77
2023-05-10T11:16:53.818Z,1.60
2023-05-10T11:17:56.897Z,1.38
2023-05-10T11:19:03.279Z,1.77
2023-05-10T11:20:16.178Z,1.75
2023-05-10T11:21:18.980Z,1.52
2023-05-10T11:22:21.308Z,1.38
2023-05-10T11:23:24.221Z,1.80
2023-05-10T11:24:29.031Z,1.60
2023-05-10T11:25:31.456Z,1.60
2023-05-10T11:26:36.244Z,1.30
2023-05-10T11:27:39.276Z,1.85
2023-05-10T11:28:45.965Z,1.98
2023-05-10T11:29:52.651Z,1.67
2023-05-10T11:30:55.794Z,1.42
2023-05-10T11:32:00.109Z,1.40
2023-05-10T11:33:02.971Z,1.52
2023-05-10T11:34:05.972Z,1.88
2023-05-10T11:35:10.137Z,1.73
2023-05-10T11:36:17.927Z,1.13
2023-05-10T11:37:20.358Z,1.30
2023-05-10T11:38:22.874Z,1.40
2023-05-10T11:39:30.158Z,1.30
2023-05-10T11:40:32.719Z,1.33
2023-05-10T11:41:35.341Z,1.40
2023-05-10T11:42:39.150Z,1.38
2023-05-10T11:43:42.369Z,1.50
2023-05-10T11:44:47.960Z,1.00
2023-05-10T11:45:51.370Z,1.27
2023-05-10T11:46:53.762Z,0.90
2023-05-10T11:48:00.405Z,1.20
2023-05-10T11:49:05.187Z,1.10
2023-05-10T11:50:08.286Z,1.10
2023-05-10T11:51:12.132Z,0.85
2023-05-10T11:52:15.568Z,0.98
2023-05-10T11:53:17.991Z,0.88
2023-05-10T11:54:20.700Z,0.80
2023-05-10T11:55:26.070Z,1.08
2023-05-10T11:56:28.546Z,0.75
2023-05-10T11:57:33.105Z,1.00
2023-05-10T11:58:36.664Z,0.80
2023-05-10T11:59:41.721Z,0.90
2023-05-10T12:00:46.406Z,0.90
2023-05-10T12:01:51.157Z,0.70
2023-05-10T12:02:53.757Z,0.85
2023-05-10T12:04:01.423Z,0.70
2023-05-10T12:05:06.150Z,0.98
2023-05-10T12:06:09.070Z,0.88
2023-05-10T12:07:12.383Z,0.82
2023-05-10T12:08:16.389Z,0.75
2023-05-10T12:09:23.042Z,0.60
2023-05-10T12:10:35.846Z,0.90
2023-05-10T12:11:44.482Z,0.85
2023-05-10T12:12:52.940Z,0.70
2023-05-10T12:13:57.837Z,0.90
2023-05-10T12:15:00.490Z,0.60
2023-05-10T12:16:17.345Z,17.05
2023-05-10T12:17:19.783Z,17.50
2023-05-10T12:18:27.804Z,17.73
2023-05-10T12:19:38.397Z,18.17
2023-05-10T12:20:41.562Z,14.07
2023-05-10T12:21:45.525Z,11.10
2023-05-10T12:22:50.949Z,8.32
2023-05-10T12:24:02.091Z,6.30
2023-05-10T12:25:04.747Z,5.50
2023-05-10T12:26:09.476Z,3.83
2023-05-10T12:27:13.340Z,3.10
2023-05-10T12:28:15.839Z,2.83
2023-05-10T12:29:21.178Z,2.72
2023-05-10T12:30:28.600Z,2.53
2023-05-10T12:31:31.296Z,2.92
2023-05-10T12:32:45.027Z,1.85
2023-05-10T12:33:50.442Z,1.80
2023-05-10T12:34:54.254Z,1.63
2023-05-10T12:36:00.327Z,2.08
2023-05-10T12:37:04.454Z,1.52
2023-05-10T12:38:32.561Z,1.98
2023-05-10T12:39:43.313Z,1.38
2023-05-10T12:40:45.894Z,1.40
2023-05-10T12:41:48.364Z,1.42
2023-05-10T12:42:51.842Z,1.30
2023-05-10T12:43:54.221Z,1.70
2023-05-10T12:44:57.999Z,1.27
2023-05-10T12:46:12.345Z,1.30
2023-05-10T12:47:14.705Z,1.30
2023-05-10T12:48:17.200Z,1.20
2023-05-10T12:49:20.605Z,1.20
2023-05-10T12:50:23.095Z,1.27
2023-05-10T12:51:25.546Z,1.08
2023-05-10T12:52:29.051Z,0.90
2023-05-10T12:53:32.139Z,0.80
2023-05-10T12:54:34.609Z,0.88
2023-05-10T12:55:37.052Z,0.88
2023-05-10T12:56:39.592Z,1.10
2023-05-10T12:57:41.954Z,1.00
2023-05-10T12:58:48.875Z,1.23
2023-05-10T12:59:51.862Z,1.10
2023-05-10T13:00:54.461Z,0.80
2023-05-10T13:01:57.842Z,0.93
2023-05-10T13:03:00.545Z,1.00
2023-05-10T13:04:03.189Z,1.40
2023-05-10T13:05:06.921Z,6.15
2023-05-10T13:06:10.475Z,14.23
2023-05-10T13:07:13.028Z,15.27
2023-05-10T13:08:17.008Z,13.68
2023-05-10T13:09:19.915Z,10.13
2023-05-10T13:10:23.518Z,11.68
2023-05-10T13:11:26.091Z,11.30
2023-05-10T13:12:28.541Z,9.38
2023-05-10T13:13:30.875Z,7.80
2023-05-10T13:14:33.379Z,5.65
2023-05-10T13:15:35.976Z,4.85
2023-05-10T13:16:38.466Z,4.30
2023-05-10T13:17:41.668Z,3.15
2023-05-10T13:18:44.202Z,3.17
2023-05-10T13:19:46.601Z,2.53
2023-05-10T13:20:50.574Z,2.33
2023-05-10T13:21:53.053Z,2.00
2023-05-10T13:22:55.480Z,1.90
2023-05-10T13:23:57.791Z,1.80
2023-05-10T13:25:00.189Z,1.85
2023-05-10T13:26:03.115Z,1.35
2023-05-10T13:27:05.846Z,1.17
2023-05-10T13:28:08.329Z,1.55
2023-05-10T13:29:10.924Z,1.65
2023-05-10T13:30:13.508Z,1.45
2023-05-10T13:31:16.243Z,1.30
2023-05-10T13:32:18.796Z,1.20
2023-05-10T13:33:21.126Z,1.60
2023-05-10T13:34:23.548Z,1.30
2023-05-10T13:35:26.110Z,1.02
2023-05-10T13:36:28.660Z,1.70
2023-05-10T13:37:32.186Z,1.20
2023-05-10T13:38:35.478Z,1.08
2023-05-10T13:39:38.587Z,1.35
2023-05-10T13:40:41.217Z,1.48
2023-05-10T13:41:44.276Z,1.00
2023-05-10T13:42:46.990Z,1.08
2023-05-10T13:43:50.250Z,1.00
2023-05-10T13:44:52.676Z,1.10
2023-05-10T13:45:55.081Z,1.10
2023-05-10T13:46:57.958Z,0.90
2023-05-10T13:48:00.458Z,1.08
2023-05-10T13:49:02.990Z,1.10
2023-05-10T13:50:06.268Z,1.00
2023-05-10T13:51:08.967Z,0.85
2023-05-10T13:52:11.401Z,1.20
2023-05-10T13:53:14.146Z,1.10
2023-05-10T13:54:18.315Z,1.10
2023-05-10T13:55:20.947Z,0.93
2023-05-10T13:56:24.361Z,1.27
2023-05-10T13:57:27.598Z,1.13
2023-05-10T13:58:30.015Z,1.38
2023-05-10T13:59:32.722Z,1.52
2023-05-10T14:00:35.289Z,1.33
2023-05-10T14:01:37.961Z,1.40
2023-05-10T14:02:40.554Z,1.00
2023-05-10T14:03:43.252Z,1.20
2023-05-10T14:04:46.187Z,1.27
2023-05-10T14:05:49.214Z,1.10
2023-05-10T14:06:51.601Z,1.17
2023-05-10T14:07:54.758Z,3.40
2023-05-10T14:08:57.835Z,5.88
2023-05-10T14:10:00.338Z,8.73
2023-05-10T14:11:03.394Z,8.43
2023-05-10T14:12:05.905Z,10.27
2023-05-10T14:13:08.847Z,7.03
2023-05-10T14:14:12.399Z,9.45
2023-05-10T14:15:15.224Z,10.27
2023-05-10T14:16:18.478Z,9.82
2023-05-10T14:17:20.896Z,8.07
2023-05-10T14:18:24.215Z,5.90